Time;durP1;ratioP1;P1;durP2;ratioP2;P2;SDS_P1;SDS_P2;PMS_P1;PMS_P2;Temp;Humidity;BMP_temperature;BMP_pressure;BME280_temperature;BME280_humidity;BME280_pressure;Samples;Min_cycle;Max_cycle;Signal;HPM_P1;HPM_P2
2022/06/17 00:00:14;;;;;;;4.40;2.40;;;;;;;16.05;48.98;100661.72;10388896;28;20136;-62
2022/06/17 00:05:16;;;;;;;11.00;2.42;;;;;;;15.85;49.26;100655.22;10387508;28;20049;-62
2022/06/17 00:10:24;;;;;;;5.10;2.50;;;;;;;15.71;50.12;100647.44;10386544;28;20100;-61
2022/06/17 00:15:25;;;;;;;5.00;2.40;;;;;;;15.69;49.81;100646.69;10387868;28;20164;-62
2022/06/17 00:20:27;;;;;;;4.80;2.10;;;;;;;15.75;49.69;100648.06;10387443;28;20136;-61
2022/06/17 00:25:35;;;;;;;5.53;2.15;;;;;;;15.71;49.79;100650.06;10387580;28;20088;-61
2022/06/17 00:30:38;;;;;;;7.90;2.53;;;;;;;15.65;49.95;100645.22;10387135;28;20525;-62
2022/06/17 00:35:44;;;;;;;5.10;2.80;;;;;;;15.51;50.30;100645.31;10386801;28;20459;-61
2022/06/17 00:40:46;;;;;;;4.60;2.30;;;;;;;15.38;50.58;100660.25;10385954;28;20129;-61
2022/06/17 00:45:55;;;;;;;5.95;2.40;;;;;;;15.17;50.70;100667.81;10385743;28;20075;-61
2022/06/17 00:51:02;;;;;;;5.88;2.45;;;;;;;15.08;51.49;100675.50;10385981;28;20076;-61
2022/06/17 00:56:11;;;;;;;4.03;2.63;;;;;;;15.04;51.43;100677.47;10385746;28;20150;-61
2022/06/17 01:01:13;;;;;;;4.75;2.70;;;;;;;14.79;51.94;100684.47;10386114;28;20128;-61
2022/06/17 01:06:19;;;;;;;4.50;2.40;;;;;;;14.74;52.46;100678.63;10383920;28;20056;-63
2022/06/17 01:11:25;;;;;;;4.85;2.40;;;;;;;14.81;52.43;100683.41;10384679;28;20151;-61
2022/06/17 01:16:31;;;;;;;4.13;2.45;;;;;;;14.79;52.42;100679.19;10384210;28;20045;-61
2022/06/17 01:21:40;;;;;;;4.80;2.45;;;;;;;14.70;52.76;100677.13;10385356;28;20046;-62
2022/06/17 01:26:42;;;;;;;4.63;2.60;;;;;;;14.54;52.82;100682.56;10384085;28;20160;-61
2022/06/17 01:31:49;;;;;;;5.75;2.63;;;;;;;14.41;53.03;100695.63;10385124;28;20049;-64
2022/06/17 01:36:53;;;;;;;5.22;2.65;;;;;;;13.88;53.87;100695.47;10379151;28;20093;-61
2022/06/17 01:41:55;;;;;;;8.35;2.55;;;;;;;13.78;54.40;100704.88;10384584;28;20439;-62
2022/06/17 01:46:57;;;;;;;6.70;2.50;;;;;;;13.92;54.30;100697.03;10383849;28;20045;-62
2022/06/17 01:52:11;;;;;;;6.05;2.80;;;;;;;13.71;54.36;100706.19;10382764;28;20124;-62
2022/06/17 01:57:18;;;;;;;4.50;2.60;;;;;;;13.38;54.97;100700.28;10383478;28;20383;-62
2022/06/17 02:02:21;;;;;;;4.18;2.45;;;;;;;13.48;54.98;100715.47;10384426;28;20498;-62
2022/06/17 02:07:44;;;;;;;5.55;2.40;;;;;;;13.67;55.12;100707.31;10390931;28;20053;-62
2022/06/17 02:12:46;;;;;;;6.03;2.65;;;;;;;13.74;54.62;100704.22;10391371;28;20483;-64
2022/06/17 02:17:52;;;;;;;5.22;2.40;;;;;;;13.74;54.51;100703.38;10390792;28;20045;-62
2022/06/17 02:22:56;;;;;;;5.57;2.50;;;;;;;13.71;55.09;100696.53;10373101;28;20104;-64
2022/06/17 02:28:00;;;;;;;4.18;2.40;;;;;;;13.70;55.09;100684.31;10395204;28;20045;-64
2022/06/17 02:33:05;;;;;;;5.75;3.00;;;;;;;13.72;55.18;100694.72;10396154;28;20045;-64
2022/06/17 02:38:15;;;;;;;5.25;3.03;;;;;;;13.53;55.45;100699.41;10399757;28;20129;-62
2022/06/17 02:43:23;;;;;;;4.55;2.70;;;;;;;13.45;55.64;100705.16;10397728;28;20072;-64
2022/06/17 02:48:33;;;;;;;5.60;2.50;;;;;;;13.51;55.46;100701.28;10398273;28;20132;-64
2022/06/17 02:53:38;;;;;;;5.17;2.70;;;;;;;13.33;55.35;100704.97;10399164;28;20244;-64
2022/06/17 02:58:46;;;;;;;4.55;2.40;;;;;;;13.34;56.02;100710.13;10397367;28;20156;-64
2022/06/17 03:03:49;;;;;;;4.70;2.40;;;;;;;13.35;55.43;100711.00;10393939;28;20493;-64
2022/06/17 03:08:52;;;;;;;4.60;2.67;;;;;;;13.41;55.38;100710.63;10390495;28;20053;-65
2022/06/17 03:14:01;;;;;;;3.88;2.28;;;;;;;13.46;55.42;100709.44;10390110;28;20048;-64
2022/06/17 03:19:03;;;;;;;4.97;2.60;;;;;;;13.52;55.14;100706.44;10390783;28;20061;-64
2022/06/17 03:24:04;;;;;;;4.72;2.50;;;;;;;13.52;55.08;100706.44;10390561;28;20136;-64
2022/06/17 03:29:09;;;;;;;3.42;2.40;;;;;;;13.54;54.88;100708.97;10390025;28;20160;-64
2022/06/17 03:34:23;;;;;;;7.53;2.67;;;;;;;13.48;55.20;100706.72;10385131;28;20119;-64
2022/06/17 03:39:36;;;;;;;4.20;2.50;;;;;;;13.52;55.10;100708.22;10387833;28;20052;-64
2022/06/17 03:44:49;;;;;;;4.45;2.40;;;;;;;13.50;55.25;100723.25;10389844;28;20124;-64
2022/06/17 03:49:57;;;;;;;5.88;2.65;;;;;;;13.52;54.87;100739.75;10389872;28;20180;-64
2022/06/17 03:54:58;;;;;;;7.03;2.70;;;;;;;13.31;54.92;100746.25;10387485;28;20393;-64
2022/06/17 04:00:01;;;;;;;4.38;2.58;;;;;;;13.50;54.85;100747.75;10387111;28;20041;-63
2022/06/17 04:05:04;;;;;;;6.72;2.88;;;;;;;13.72;54.67;100747.31;10387187;28;20585;-64
2022/06/17 04:10:07;;;;;;;4.50;2.80;;;;;;;14.69;52.79;100751.81;10388483;28;20053;-64
2022/06/17 04:15:20;;;;;;;3.83;2.22;;;;;;;17.22;47.61;100749.13;10387935;28;20136;-64
2022/06/17 04:20:47;;;;;;;3.45;2.17;;;;;;;19.77;42.03;100747.09;10387175;28;20322;-64
2022/06/17 04:25:54;;;;;;;4.90;2.20;;;;;;;20.14;40.66;100754.50;10388794;28;20063;-64
2022/06/17 04:30:59;;;;;;;6.43;2.35;;;;;;;20.14;40.37;100756.28;10387006;28;20454;-64
2022/06/17 04:36:13;;;;;;;4.85;2.13;;;;;;;19.68;40.95;100771.78;10387678;28;20485;-63
2022/06/17 04:41:18;;;;;;;5.57;2.45;;;;;;;19.53;41.47;100759.78;10388129;28;20068;-64
2022/06/17 04:46:30;;;;;;;6.50;2.58;;;;;;;20.37;39.86;100749.84;10387989;28;20132;-64
2022/06/17 04:51:34;;;;;;;3.92;2.40;;;;;;;22.27;36.68;100753.50;10385844;28;20079;-64
2022/06/17 04:56:45;;;;;;;6.00;2.47;;;;;;;24.38;32.72;100744.66;10386916;28;20041;-64
2022/06/17 05:01:48;;;;;;;3.53;2.20;;;;;;;26.14;30.76;100737.81;10385315;28;20050;-63
2022/06/17 05:06:50;;;;;;;5.32;2.63;;;;;;;27.11;28.94;100730.16;10387045;28;20470;-63
2022/06/17 05:12:07;;;;;;;4.10;2.17;;;;;;;28.07;27.10;100733.00;10386596;28;20148;-63
2022/06/17 05:17:09;;;;;;;4.45;2.30;;;;;;;28.08;27.13;100731.97;10386993;28;20132;-62
2022/06/17 05:22:15;;;;;;;4.45;2.00;;;;;;;29.31;25.37;100725.63;10385685;28;20049;-62
2022/06/17 05:27:17;;;;;;;4.85;2.20;;;;;;;29.85;24.67;100740.19;10385603;28;20406;-64
2022/06/17 05:32:20;;;;;;;3.65;1.92;;;;;;;26.98;27.19;100747.84;10384377;28;20054;-63
2022/06/17 05:37:22;;;;;;;4.35;2.20;;;;;;;24.11;31.23;100761.72;10385809;28;20053;-64
2022/06/17 05:42:23;;;;;;;7.85;2.20;;;;;;;22.37;33.93;100775.63;10386331;28;20055;-63
2022/06/17 05:47:25;;;;;;;3.65;2.38;;;;;;;21.66;35.33;100778.91;10385374;28;20056;-63
2022/06/17 05:52:27;;;;;;;4.00;2.30;;;;;;;21.12;36.72;100775.91;10384115;28;20057;-63
2022/06/17 05:57:29;;;;;;;5.82;2.40;;;;;;;20.87;37.32;100788.75;10369190;28;20057;-63
2022/06/17 06:02:30;;;;;;;5.28;2.50;;;;;;;20.70;37.55;100802.69;10378566;28;20053;-63
2022/06/17 06:07:33;;;;;;;4.93;2.60;;;;;;;20.79;37.86;100785.09;10379927;28;20460;-63
2022/06/17 06:12:53;;;;;;;5.15;2.50;;;;;;;21.04;37.53;100781.94;10381341;28;20046;-63
2022/06/17 06:17:55;;;;;;;4.15;2.60;;;;;;;20.98;37.67;100787.81;10383196;28;20059;-63
2022/06/17 06:22:57;;;;;;;50.33;27.15;;;;;;;21.18;37.55;100781.53;10382077;28;20133;-63
2022/06/17 06:27:58;;;;;;;5.35;2.80;;;;;;;21.45;37.35;100787.03;10377733;28;20053;-63
2022/06/17 06:33:01;;;;;;;7.75;2.92;;;;;;;21.36;37.34;100779.88;10378257;28;20056;-63
2022/06/17 06:38:05;;;;;;;6.53;2.60;;;;;;;21.39;37.19;100778.78;10380159;28;20060;-63
2022/06/17 06:43:16;;;;;;;5.53;2.60;;;;;;;22.01;36.69;100768.44;10379564;28;20140;-63
2022/06/17 06:48:21;;;;;;;5.35;2.65;;;;;;;23.19;35.19;100755.09;10380773;28;20045;-63
2022/06/17 06:53:23;;;;;;;4.85;2.70;;;;;;;24.04;33.66;100752.59;10368074;28;20061;-63
2022/06/17 06:58:25;;;;;;;7.38;2.60;;;;;;;25.25;32.21;100745.06;10378619;28;20132;-63
2022/06/17 07:03:29;;;;;;;5.40;2.40;;;;;;;26.43;30.23;100734.53;10379282;28;20810;-63
2022/06/17 07:08:34;;;;;;;4.65;2.30;;;;;;;26.94;29.00;100730.41;10368255;28;20537;-63
2022/06/17 07:13:36;;;;;;;7.45;2.47;;;;;;;27.12;28.63;100730.94;10384062;28;20081;-63
2022/06/17 07:18:39;;;;;;;8.27;2.60;;;;;;;27.52;27.78;100736.88;10379056;28;20413;-62
2022/06/17 07:23:44;;;;;;;5.38;2.20;;;;;;;28.00;26.90;100742.81;10379412;28;20062;-63
2022/06/17 07:28:48;;;;;;;6.20;2.45;;;;;;;26.65;28.00;100742.66;10382766;28;20060;-63
2022/06/17 07:33:50;;;;;;;7.85;2.40;;;;;;;26.79;27.91;100740.25;10375989;28;20427;-63
2022/06/17 07:44:12;;;;;;;5.53;2.20;;;;;;;26.20;28.70;100741.66;10379987;28;20049;-63
2022/06/17 07:49:14;;;;;;;10.52;2.95;;;;;;;25.56;29.47;100726.50;10384104;28;20069;-66
2022/06/17 07:54:16;;;;;;;7.32;2.10;;;;;;;25.44;29.96;100727.84;10383703;28;20119;-65
2022/06/17 07:59:18;;;;;;;10.65;2.25;;;;;;;25.48;29.59;100723.84;10386292;28;20045;-66
2022/06/17 08:04:20;;;;;;;6.20;2.30;;;;;;;25.57;29.71;100717.47;10382883;28;20140;-65
2022/06/17 08:09:22;;;;;;;4.75;2.30;;;;;;;26.05;29.15;100708.53;10382845;28;20509;-66
2022/06/17 08:14:24;;;;;;;6.38;2.30;;;;;;;27.31;27.84;100707.19;10387162;28;20059;-66
2022/06/17 08:19:25;;;;;;;6.05;2.25;;;;;;;27.64;27.32;100717.63;10386017;28;20049;-67
2022/06/17 08:24:27;;;;;;;7.43;2.33;;;;;;;28.52;26.11;100703.22;10385767;28;20051;-66
2022/06/17 08:29:29;;;;;;;6.15;2.30;;;;;;;28.89;25.58;100705.72;10385325;28;20552;-66
2022/06/17 08:34:51;;;;;;;12.23;2.20;;;;;;;29.62;24.73;100688.38;10384336;28;20056;-66
2022/06/17 08:39:54;;;;;;;8.10;2.30;;;;;;;29.50;24.67;100684.56;10384530;28;20621;-66
2022/06/17 08:45:26;;;;;;;6.35;1.90;;;;;;;28.88;23.92;100689.78;10372567;28;20437;-66
2022/06/17 08:50:48;;;;;;;7.25;2.10;;;;;;;28.40;24.48;100690.44;10382848;28;20123;-66
2022/06/17 08:56:12;;;;;;;4.22;1.70;;;;;;;28.78;24.83;100689.22;10376652;28;20067;-66
2022/06/17 09:01:42;;;;;;;5.43;2.03;;;;;;;28.92;24.03;100681.13;10373104;28;20500;-66
2022/06/17 09:06:59;;;;;;;5.97;2.00;;;;;;;28.91;24.38;100687.50;10374681;28;22222;-66
2022/06/17 09:12:30;;;;;;;4.97;1.90;;;;;;;29.70;23.62;100691.72;10373836;28;20105;-67
2022/06/17 09:18:14;;;;;;;5.03;1.90;;;;;;;29.77;22.19;100695.31;10380417;28;20127;-67
2022/06/17 09:23:25;;;;;;;4.32;1.80;;;;;;;30.05;22.38;100698.00;10359533;28;20494;-67
2022/06/17 09:28:42;;;;;;;6.22;1.70;;;;;;;29.96;22.85;100693.81;10380840;28;20128;-67
2022/06/17 09:33:56;;;;;;;9.35;1.60;;;;;;;29.88;22.45;100692.09;10384977;28;20142;-67
2022/06/17 09:39:09;;;;;;;3.40;1.50;;;;;;;29.76;22.27;100682.84;10379104;28;20172;-67
2022/06/17 09:44:18;;;;;;;4.72;2.03;;;;;;;29.33;23.59;100675.06;10383873;28;20056;-67
2022/06/17 09:49:22;;;;;;;3.65;1.60;;;;;;;29.02;24.36;100675.41;10382216;28;20504;-67
2022/06/17 09:54:29;;;;;;;5.15;1.63;;;;;;;29.03;23.97;100664.44;10381772;28;20064;-67
2022/06/17 09:59:55;;;;;;;5.28;1.80;;;;;;;28.96;23.00;100660.84;10381429;28;20068;-67
2022/06/17 10:05:00;;;;;;;4.50;1.60;;;;;;;29.18;24.09;100668.91;10381048;28;20477;-67
2022/06/17 10:10:14;;;;;;;5.18;1.88;;;;;;;28.92;23.79;100667.66;10379949;28;20324;-67
2022/06/17 10:15:33;;;;;;;3.25;1.63;;;;;;;28.80;24.34;100662.94;10380406;28;20140;-67
2022/06/17 10:20:43;;;;;;;;;;;;;;;27.88;24.79;100669.84;10377869;28;20132;-67
2022/06/17 10:26:39;;;;;;;4.28;1.83;;;;;;;28.44;24.35;100649.47;10365100;28;19925;-67
2022/06/17 10:31:47;;;;;;;4.18;1.70;;;;;;;28.82;24.21;100644.72;10363566;28;20140;-67
2022/06/17 10:36:52;;;;;;;4.00;1.80;;;;;;;28.70;24.47;100639.03;10380634;28;21163;-66
2022/06/17 10:41:55;;;;;;;6.28;1.83;;;;;;;28.85;24.13;100623.66;10381163;28;20142;-67
2022/06/17 10:47:23;;;;;;;5.05;1.65;;;;;;;28.62;24.09;100632.94;10381016;28;20478;-67
2022/06/17 10:52:34;;;;;;;4.20;1.70;;;;;;;28.19;24.65;100624.78;10368011;28;20079;-68
2022/06/17 10:57:37;;;;;;;5.97;1.65;;;;;;;28.47;24.97;100630.28;10378333;28;20060;-68
2022/06/17 11:02:39;;;;;;;5.55;1.80;;;;;;;28.70;24.33;100624.72;10387667;28;20573;-68
2022/06/17 11:07:52;;;;;;;6.32;1.90;;;;;;;28.71;24.57;100621.84;10386504;28;20494;-67
2022/06/17 11:12:54;;;;;;;2.92;1.60;;;;;;;28.66;24.52;100613.53;10385993;28;20212;-67
2022/06/17 11:18:00;;;;;;;5.30;1.60;;;;;;;28.60;24.53;100606.22;10387769;28;20160;-68
2022/06/17 11:23:33;;;;;;;10.10;1.67;;;;;;;28.71;24.73;100615.63;10387688;28;20088;-68
2022/06/17 11:28:38;;;;;;;3.45;1.50;;;;;;;28.18;25.75;100606.94;10387133;28;20045;-67
2022/06/17 11:33:59;;;;;;;3.53;1.83;;;;;;;28.35;25.92;100596.81;10466053;28;20058;-67
2022/06/17 11:39:34;;;;;;;6.93;1.77;;;;;;;27.94;26.63;100590.28;10466949;28;20195;-67
2022/06/17 11:44:36;;;;;;;6.15;1.70;;;;;;;28.13;26.46;100584.34;10419375;28;20049;-67
2022/06/17 11:49:39;;;;;;;3.05;1.50;;;;;;;28.16;26.60;100578.56;10467493;28;20055;-67
2022/06/17 11:54:53;;;;;;;6.38;1.70;;;;;;;28.17;26.15;100574.88;10447158;28;20064;-67
2022/06/17 11:59:58;;;;;;;6.72;1.73;;;;;;;28.09;25.63;100564.22;10465284;28;20066;-67
2022/06/17 12:05:03;;;;;;;3.17;1.48;;;;;;;28.24;25.45;100557.78;10466976;28;20531;-67
2022/06/17 12:10:07;;;;;;;7.28;1.67;;;;;;;28.48;24.63;100548.53;10464456;28;20045;-67
2022/06/17 12:15:26;;;;;;;5.95;1.60;;;;;;;28.70;24.60;100547.50;10460308;28;20131;-67
2022/06/17 12:20:43;;;;;;;4.38;1.55;;;;;;;28.84;24.65;100549.31;10461373;28;20055;-67
2022/06/17 12:25:59;;;;;;;4.97;1.80;;;;;;;28.99;23.37;100539.25;10456359;28;20475;-67
2022/06/17 12:31:55;;;;;;;3.85;1.50;;;;;;;28.53;23.86;100543.41;10457393;28;20700;-67
2022/06/17 12:37:10;;;;;;;5.55;1.50;;;;;;;28.77;23.37;100518.75;10412321;28;20044;-67
2022/06/17 12:42:36;;;;;;;5.45;1.70;;;;;;;28.80;22.99;100510.31;10462488;28;20048;-67
2022/06/17 12:48:01;;;;;;;4.72;1.50;;;;;;;29.03;23.30;100504.72;10411688;28;20048;-66
2022/06/17 12:53:26;;;;;;;6.30;1.60;;;;;;;29.29;22.27;100504.88;10461178;28;20404;-66
2022/06/17 12:58:46;;;;;;;4.00;1.67;;;;;;;29.15;22.43;100486.13;10459352;28;20207;-67
2022/06/17 13:03:59;;;;;;;6.50;1.48;;;;;;;29.14;22.33;100482.59;10458436;28;20501;-66
2022/06/17 13:09:00;;;;;;;4.05;1.40;;;;;;;29.08;22.28;100473.44;10437703;28;20044;-66
2022/06/17 13:14:14;;;;;;;3.65;1.40;;;;;;;29.14;23.04;100465.59;10457102;28;20064;-66
2022/06/17 13:19:38;;;;;;;5.97;1.40;;;;;;;29.45;21.94;100457.91;10459890;28;20938;-66
2022/06/17 13:25:01;;;;;;;5.00;1.48;;;;;;;29.79;22.38;100453.25;10446797;28;20422;-66
2022/06/17 13:30:13;;;;;;;4.22;1.40;;;;;;;30.25;21.12;100445.31;10457297;28;20055;-66
2022/06/17 13:35:36;;;;;;;6.45;1.60;;;;;;;29.98;21.26;100448.16;10463839;28;20414;-66
2022/06/17 13:40:42;;;;;;;4.03;1.30;;;;;;;30.22;20.61;100444.84;10463913;28;20084;-66
2022/06/17 13:46:05;;;;;;;2.47;1.40;;;;;;;30.22;21.05;100456.50;10462394;28;20056;-66
2022/06/17 13:51:32;;;;;;;2.83;1.50;;;;;;;30.14;20.00;100454.00;10459540;28;21618;-66
2022/06/17 13:56:43;;;;;;;2.75;1.23;;;;;;;30.18;19.88;100455.25;10461427;28;20958;-66
2022/06/17 14:01:46;;;;;;;4.38;1.23;;;;;;;30.58;19.35;100448.00;10463901;28;20451;-66
2022/06/17 14:06:48;;;;;;;3.08;1.02;;;;;;;30.45;18.30;100445.28;10461433;28;20040;-66
2022/06/17 14:11:50;;;;;;;4.50;1.10;;;;;;;30.35;18.70;100445.72;10462906;28;20057;-67
2022/06/17 14:17:02;;;;;;;4.15;1.38;;;;;;;30.27;18.28;100437.00;10453811;28;20136;-66
2022/06/17 14:22:05;;;;;;;2.17;0.90;;;;;;;30.42;19.06;100429.50;10464886;28;20075;-65
2022/06/17 14:27:32;;;;;;;3.75;1.40;;;;;;;30.73;19.27;100420.78;10471521;28;20165;-66
2022/06/17 14:32:52;;;;;;;2.35;1.10;;;;;;;30.85;17.70;100419.94;10461329;28;20048;-67
2022/06/17 14:38:06;;;;;;;2.67;1.20;;;;;;;31.02;18.04;100417.63;10471791;28;20045;-67
2022/06/17 14:43:19;;;;;;;2.47;1.20;;;;;;;30.97;18.37;100412.88;10461943;28;20131;-67
2022/06/17 14:48:49;;;;;;;2.38;1.20;;;;;;;31.16;18.36;100409.28;10470906;28;20044;-66
2022/06/17 14:53:52;;;;;;;3.78;1.20;;;;;;;31.06;18.21;100413.47;10469413;28;20143;-67
2022/06/17 14:58:57;;;;;;;3.17;1.17;;;;;;;30.98;18.20;100416.41;10470694;28;20122;-67
2022/06/17 15:04:07;;;;;;;1.63;1.00;;;;;;;31.14;17.95;100410.53;10468958;28;20135;-67
2022/06/17 15:09:23;;;;;;;2.47;1.10;;;;;;;31.14;17.95;100391.63;10467441;28;20999;-67
2022/06/17 15:14:26;;;;;;;1.33;1.10;;;;;;;31.27;18.09;100383.47;10469794;28;20129;-67
2022/06/17 15:19:37;;;;;;;3.17;1.05;;;;;;;31.37;18.91;100370.31;10466744;28;20124;-67
2022/06/17 15:25:15;;;;;;;3.40;1.10;;;;;;;31.34;18.38;100370.72;10471078;28;20051;-67
2022/06/17 15:30:24;;;;;;;3.13;1.08;;;;;;;31.45;18.51;100361.97;10469754;28;20179;-67
2022/06/17 15:35:30;;;;;;;4.78;1.20;;;;;;;31.46;18.51;100364.44;10470061;28;20135;-67
2022/06/17 15:40:36;;;;;;;3.67;1.08;;;;;;;31.49;18.42;100374.03;10462607;28;20186;-67
2022/06/17 15:45:42;;;;;;;1.55;1.10;;;;;;;31.49;18.21;100363.22;10467379;28;20054;-67
2022/06/17 15:50:48;;;;;;;2.72;1.10;;;;;;;31.42;18.52;100362.38;10466491;28;20106;-67
2022/06/17 15:55:51;;;;;;;4.38;1.25;;;;;;;31.44;18.48;100361.13;10468127;28;20402;-67
2022/06/17 16:01:06;;;;;;;2.42;1.08;;;;;;;31.27;18.61;100367.25;10467168;28;20102;-67
2022/06/17 16:06:38;;;;;;;2.72;1.20;;;;;;;31.36;18.23;100357.84;10467142;28;20041;-67
2022/06/17 16:11:40;;;;;;;2.20;1.15;;;;;;;31.28;18.45;100360.78;10453596;28;20048;-67
2022/06/17 16:16:50;;;;;;;1.98;1.20;;;;;;;31.16;18.41;100360.63;10468400;28;20049;-67
2022/06/17 16:21:58;;;;;;;4.18;1.17;;;;;;;31.26;18.89;100358.31;10466765;28;20053;-66
2022/06/17 16:27:13;;;;;;;2.42;1.10;;;;;;;31.32;19.06;100351.19;10468634;28;20063;-67
2022/06/17 16:32:15;;;;;;;6.05;1.10;;;;;;;31.27;18.84;100349.13;10467797;28;20102;-67
2022/06/17 16:37:39;;;;;;;3.80;1.10;;;;;;;31.25;19.23;100345.81;10466782;28;20080;-66
2022/06/17 16:48:10;;;;;;;2.75;1.10;;;;;;;31.05;19.16;100344.25;10458404;28;20138;-67
2022/06/17 16:53:11;;;;;;;2.83;1.20;;;;;;;31.00;20.07;100344.91;10449724;28;20465;-67
2022/06/17 16:58:13;;;;;;;3.53;1.25;;;;;;;30.85;19.88;100348.88;10463929;28;20102;-66
2022/06/17 17:03:20;;;;;;;2.03;1.10;;;;;;;30.81;19.67;100340.38;10466535;28;20175;-67
2022/06/17 17:08:22;;;;;;;1.92;1.10;;;;;;;30.82;20.33;100335.81;10447462;28;20132;-67
2022/06/17 17:13:28;;;;;;;1.63;1.00;;;;;;;30.49;20.67;100334.03;10438085;28;20056;-67
2022/06/17 17:18:30;;;;;;;2.95;1.00;;;;;;;30.36;21.78;100334.00;10451652;28;20540;-67
2022/06/17 17:23:36;;;;;;;1.13;0.80;;;;;;;30.17;21.76;100324.06;10452801;28;20114;-66
2022/06/17 17:28:38;;;;;;;4.95;1.40;;;;;;;29.98;21.68;100330.31;10444078;28;20412;-67
2022/06/17 17:33:41;;;;;;;2.42;1.30;;;;;;;29.82;22.29;100318.03;10433757;28;20139;-67
2022/06/17 17:38:43;;;;;;;3.85;1.05;;;;;;;29.72;23.44;100325.69;10442929;28;20412;-67
2022/06/17 17:43:45;;;;;;;5.15;1.35;;;;;;;29.67;23.34;100311.16;10439148;28;20413;-67
2022/06/17 17:48:47;;;;;;;4.13;1.23;;;;;;;29.63;23.48;100312.63;10431394;28;20059;-66
2022/06/17 17:53:49;;;;;;;3.50;1.15;;;;;;;29.61;23.70;100309.28;10429606;28;20519;-66
2022/06/17 17:58:51;;;;;;;3.13;1.20;;;;;;;29.45;24.17;100307.00;10427107;28;20078;-66
2022/06/17 18:03:54;;;;;;;2.45;1.20;;;;;;;29.35;25.33;100312.75;10436440;28;20114;-66
2022/06/17 18:08:57;;;;;;;7.07;1.35;;;;;;;29.33;25.47;100316.69;10436316;28;20323;-66
2022/06/17 18:14:07;;;;;;;4.40;1.92;;;;;;;29.16;27.64;100315.38;10436189;28;20782;-66
2022/06/17 18:19:09;;;;;;;6.05;1.83;;;;;;;28.87;27.99;100311.97;10446574;28;20049;-66
2022/06/17 18:24:13;;;;;;;3.75;1.20;;;;;;;28.62;28.58;100307.25;10430109;28;20052;-66
2022/06/17 18:29:21;;;;;;;1.92;1.10;;;;;;;28.38;28.79;100311.22;10441679;28;20051;-66
2022/06/17 18:34:33;;;;;;;2.47;1.30;;;;;;;28.11;29.26;100306.69;10454229;28;20055;-66
2022/06/17 18:39:35;;;;;;;4.82;1.10;;;;;;;27.74;29.88;100310.53;10459035;28;20044;-65
2022/06/17 18:44:37;;;;;;;2.05;1.20;;;;;;;27.43;29.95;100318.88;10458750;28;20198;-66
2022/06/17 18:49:39;;;;;;;3.15;1.17;;;;;;;27.18;29.73;100312.19;10458048;28;20408;-66
2022/06/17 18:54:41;;;;;;;3.92;1.20;;;;;;;26.83;30.06;100315.66;10460731;28;20580;-65
2022/06/17 18:59:47;;;;;;;4.95;1.30;;;;;;;26.41;30.58;100318.94;10461749;28;20047;-65
2022/06/17 19:04:52;;;;;;;3.88;1.45;;;;;;;26.19;31.63;100319.84;10439905;28;20055;-66
2022/06/17 19:20:37;;;;;;;4.93;1.30;;;;;;;25.55;34.11;100328.44;10461466;28;20186;-65
2022/06/17 19:25:39;;;;;;;5.20;1.40;;;;;;;25.36;34.74;100327.03;10467174;28;20051;-64
2022/06/17 19:30:41;;;;;;;5.65;1.83;;;;;;;25.15;35.29;100328.63;10463939;28;20592;-66
2022/06/17 19:35:51;;;;;;;2.80;1.38;;;;;;;24.93;36.31;100338.28;10467225;28;20044;-65
2022/06/17 19:46:36;;;;;;;3.17;1.60;;;;;;;24.43;37.88;100348.44;10295045;28;20046;-61
2022/06/17 19:51:37;;;;;;;2.30;1.30;;;;;;;24.28;38.29;100354.47;10418099;28;20059;-62
2022/06/17 19:56:43;;;;;;;4.05;1.63;;;;;;;24.08;38.90;100352.31;10465483;28;20055;-63
2022/06/17 20:01:58;;;;;;;3.10;1.50;;;;;;;23.83;39.29;100354.13;10465795;28;20056;-63
2022/06/17 20:07:02;;;;;;;5.53;1.60;;;;;;;23.65;39.45;100348.09;10466405;28;20052;-62
2022/06/17 20:12:05;;;;;;;9.77;1.70;;;;;;;23.53;39.85;100344.09;10466039;28;20384;-62
2022/06/17 20:17:08;;;;;;;2.50;1.40;;;;;;;23.42;40.25;100339.03;10457074;28;20511;-62
2022/06/17 20:22:13;;;;;;;8.48;1.60;;;;;;;23.10;40.57;100342.44;10466620;28;20043;-62
2022/06/17 20:27:23;;;;;;;2.55;1.40;;;;;;;22.64;41.83;100346.38;10456318;28;20052;-62
2022/06/17 20:32:32;;;;;;;4.47;1.40;;;;;;;22.54;41.87;100355.47;10467502;28;20345;-63
2022/06/17 20:37:37;;;;;;;11.32;1.80;;;;;;;22.46;41.81;100353.59;10466352;28;20044;-62
2022/06/17 20:42:39;;;;;;;4.05;1.50;;;;;;;22.47;41.72;100354.44;10456971;28;20087;-62
2022/06/17 20:53:02;;;;;;;3.67;1.50;;;;;;;22.40;41.89;100354.22;10461773;28;20524;-63
2022/06/17 20:58:11;;;;;;;3.00;1.50;;;;;;;22.33;42.13;100358.50;10446139;28;20412;-62
2022/06/17 21:03:15;;;;;;;5.38;1.80;;;;;;;22.13;42.24;100354.38;10459529;28;20048;-63
2022/06/17 21:08:19;;;;;;;4.68;1.70;;;;;;;22.02;42.48;100357.25;10463942;28;20048;-63
2022/06/17 21:13:27;;;;;;;2.97;1.60;;;;;;;21.89;42.61;100360.31;10459037;28;20181;-62
2022/06/17 21:18:29;;;;;;;3.63;1.67;;;;;;;21.77;42.88;100363.34;10463605;28;20445;-63
2022/06/17 21:23:34;;;;;;;6.13;1.80;;;;;;;21.59;43.33;100362.53;10465111;28;20068;-63
2022/06/17 21:28:36;;;;;;;5.80;1.70;;;;;;;21.47;43.36;100375.22;10465453;28;20151;-63
2022/06/17 21:33:39;;;;;;;3.42;1.70;;;;;;;21.43;43.51;100367.69;10447262;28;20060;-63
2022/06/17 21:38:50;;;;;;;3.65;1.60;;;;;;;21.16;44.69;100370.31;10458950;28;20519;-63
2022/06/17 21:43:52;;;;;;;6.22;1.70;;;;;;;21.07;44.51;100374.72;10459931;28;20162;-63
2022/06/17 21:48:54;;;;;;;6.20;1.65;;;;;;;21.10;44.56;100371.78;10464957;28;20059;-63
2022/06/17 21:53:58;;;;;;;5.00;1.85;;;;;;;21.00;44.99;100374.47;10463663;28;20056;-63
2022/06/17 21:59:00;;;;;;;3.63;1.80;;;;;;;20.90;45.06;100373.69;10465716;28;20048;-63
2022/06/17 22:04:03;;;;;;;3.63;1.60;;;;;;;20.83;44.89;100369.09;10464754;28;20041;-63
2022/06/17 22:09:09;;;;;;;4.68;1.63;;;;;;;20.58;45.36;100383.03;10467209;28;20056;-63
2022/06/17 22:14:20;;;;;;;3.45;1.70;;;;;;;20.45;46.00;100361.22;10457971;28;20059;-64
2022/06/17 22:19:22;;;;;;;3.00;1.70;;;;;;;20.34;46.16;100366.72;10465458;28;20162;-64
2022/06/17 22:24:29;;;;;;;4.07;2.15;;;;;;;20.32;46.21;100366.00;10462329;28;20136;-62
2022/06/17 22:29:36;;;;;;;4.65;2.08;;;;;;;20.16;46.98;100366.59;10466605;28;20414;-62
2022/06/17 22:34:38;;;;;;;4.95;1.95;;;;;;;20.03;47.15;100376.69;10467042;28;20082;-62
2022/06/17 22:39:40;;;;;;;3.90;1.92;;;;;;;19.98;47.48;100376.25;10453920;28;20255;-62
2022/06/17 22:44:43;;;;;;;7.88;2.80;;;;;;;19.85;48.04;100368.56;10462703;28;20067;-63
2022/06/17 22:49:45;;;;;;;5.18;3.10;;;;;;;19.72;48.42;100364.50;10474555;28;20044;-62
2022/06/17 22:54:49;;;;;;;5.88;2.22;;;;;;;19.59;48.44;100361.25;10454909;28;20190;-62
2022/06/17 22:59:51;;;;;;;5.03;2.40;;;;;;;19.44;48.58;100364.31;10474514;28;20048;-62
2022/06/17 23:05:03;;;;;;;4.10;2.28;;;;;;;19.37;48.94;100357.91;10474033;28;20487;-62
2022/06/17 23:10:18;;;;;;;5.25;2.20;;;;;;;19.34;49.06;100363.47;10450194;28;20427;-62
2022/06/17 23:15:22;;;;;;;5.55;2.28;;;;;;;19.39;48.90;100355.97;10473594;28;20891;-62
2022/06/17 23:20:23;;;;;;;3.88;2.10;;;;;;;19.35;48.85;100365.16;10472603;28;20087;-62
2022/06/17 23:25:28;;;;;;;4.22;2.15;;;;;;;19.32;48.96;100364.56;10472392;28;20096;-62
2022/06/17 23:30:30;;;;;;;4.40;1.80;;;;;;;19.15;49.27;100362.59;10472820;28;20084;-62
2022/06/17 23:35:31;;;;;;;3.75;2.00;;;;;;;18.80;49.60;100355.06;10473366;28;20140;-62
2022/06/17 23:40:33;;;;;;;3.17;1.75;;;;;;;18.77;49.86;100352.66;10471732;28;20142;-62
2022/06/17 23:45:38;;;;;;;4.43;1.85;;;;;;;18.80;49.68;100347.13;10472741;28;20049;-62
2022/06/17 23:50:47;;;;;;;3.63;1.85;;;;;;;18.70;50.06;100342.75;10453979;28;20052;-62
2022/06/17 23:55:53;;;;;;;6.28;2.00;;;;;;;18.50;50.21;100355.06;10469264;28;20490;-64
